sensor_id;sensor_type;location;lat;lon;timestamp;P1;durP1;ratioP1;P2;durP2;ratioP2
73940;SDS011;62294;48.554;10.202;2023-09-19T00:00:47;2.05;;;1.30;;
73940;SDS011;62294;48.554;10.202;2023-09-19T00:03:15;2.83;;;1.33;;
73940;SDS011;62294;48.554;10.202;2023-09-19T00:05:42;1.40;;;1.02;;
73940;SDS011;62294;48.554;10.202;2023-09-19T00:08:12;3.08;;;1.75;;
73940;SDS011;62294;48.554;10.202;2023-09-19T00:10:42;1.90;;;1.00;;
73940;SDS011;62294;48.554;10.202;2023-09-19T00:13:09;2.15;;;0.98;;
73940;SDS011;62294;48.554;10.202;2023-09-19T00:15:43;2.17;;;1.20;;
73940;SDS011;62294;48.554;10.202;2023-09-19T00:18:16;2.55;;;0.93;;
73940;SDS011;62294;48.554;10.202;2023-09-19T00:20:50;1.85;;;1.05;;
73940;SDS011;62294;48.554;10.202;2023-09-19T00:23:18;1.10;;;0.60;;
73940;SDS011;62294;48.554;10.202;2023-09-19T00:25:46;0.93;;;0.70;;
73940;SDS011;62294;48.554;10.202;2023-09-19T00:28:13;2.22;;;0.70;;
73940;SDS011;62294;48.554;10.202;2023-09-19T00:30:43;0.75;;;0.65;;
73940;SDS011;62294;48.554;10.202;2023-09-19T00:33:09;1.85;;;0.77;;
73940;SDS011;62294;48.554;10.202;2023-09-19T00:35:38;1.35;;;0.80;;
73940;SDS011;62294;48.554;10.202;2023-09-19T00:38:04;0.65;;;0.55;;
73940;SDS011;62294;48.554;10.202;2023-09-19T00:40:32;0.95;;;0.55;;
73940;SDS011;62294;48.554;10.202;2023-09-19T00:43:00;1.10;;;0.60;;
73940;SDS011;62294;48.554;10.202;2023-09-19T00:45:26;0.50;;;0.50;;
73940;SDS011;62294;48.554;10.202;2023-09-19T00:47:54;1.70;;;0.47;;
73940;SDS011;62294;48.554;10.202;2023-09-19T00:50:24;0.65;;;0.40;;
73940;SDS011;62294;48.554;10.202;2023-09-19T00:52:55;1.77;;;0.50;;
73940;SDS011;62294;48.554;10.202;2023-09-19T00:55:23;1.08;;;0.43;;
73940;SDS011;62294;48.554;10.202;2023-09-19T00:57:50;0.68;;;0.40;;
73940;SDS011;62294;48.554;10.202;2023-09-19T01:00:17;0.75;;;0.60;;
73940;SDS011;62294;48.554;10.202;2023-09-19T01:02:46;0.80;;;0.50;;
73940;SDS011;62294;48.554;10.202;2023-09-19T01:05:15;0.60;;;0.50;;
73940;SDS011;62294;48.554;10.202;2023-09-19T01:07:42;0.73;;;0.50;;
73940;SDS011;62294;48.554;10.202;2023-09-19T01:10:10;0.30;;;0.30;;
73940;SDS011;62294;48.554;10.202;2023-09-19T01:20:37;0.60;;;0.30;;
73940;SDS011;62294;48.554;10.202;2023-09-19T01:31:03;2.65;;;0.60;;
73940;SDS011;62294;48.554;10.202;2023-09-19T01:33:54;0.60;;;0.45;;
73940;SDS011;62294;48.554;10.202;2023-09-19T01:36:33;0.55;;;0.45;;
73940;SDS011;62294;48.554;10.202;2023-09-19T01:39:05;1.02;;;0.40;;
73940;SDS011;62294;48.554;10.202;2023-09-19T01:47:31;1.25;;;0.50;;
73940;SDS011;62294;48.554;10.202;2023-09-19T01:52:57;3.03;;;0.52;;
73940;SDS011;62294;48.554;10.202;2023-09-19T01:55:30;2.28;;;0.57;;
73940;SDS011;62294;48.554;10.202;2023-09-19T01:58:06;1.63;;;0.57;;
73940;SDS011;62294;48.554;10.202;2023-09-19T02:00:36;0.82;;;0.40;;
73940;SDS011;62294;48.554;10.202;2023-09-19T02:03:06;0.77;;;0.55;;
73940;SDS011;62294;48.554;10.202;2023-09-19T02:05:35;0.88;;;0.70;;
73940;SDS011;62294;48.554;10.202;2023-09-19T02:08:01;0.80;;;0.60;;
73940;SDS011;62294;48.554;10.202;2023-09-19T02:10:28;0.47;;;0.47;;
73940;SDS011;62294;48.554;10.202;2023-09-19T02:12:55;2.03;;;0.68;;
73940;SDS011;62294;48.554;10.202;2023-09-19T02:15:22;1.40;;;0.55;;
73940;SDS011;62294;48.554;10.202;2023-09-19T02:17:49;0.98;;;0.57;;
73940;SDS011;62294;48.554;10.202;2023-09-19T02:20:16;0.50;;;0.50;;
73940;SDS011;62294;48.554;10.202;2023-09-19T02:22:43;1.13;;;0.75;;
73940;SDS011;62294;48.554;10.202;2023-09-19T02:25:11;0.68;;;0.50;;
73940;SDS011;62294;48.554;10.202;2023-09-19T02:27:37;1.67;;;0.60;;
73940;SDS011;62294;48.554;10.202;2023-09-19T02:30:04;1.23;;;0.38;;
73940;SDS011;62294;48.554;10.202;2023-09-19T02:32:32;1.08;;;0.50;;
73940;SDS011;62294;48.554;10.202;2023-09-19T02:35:02;1.15;;;0.70;;
73940;SDS011;62294;48.554;10.202;2023-09-19T02:37:31;1.63;;;0.50;;
73940;SDS011;62294;48.554;10.202;2023-09-19T02:39:58;2.25;;;0.63;;
73940;SDS011;62294;48.554;10.202;2023-09-19T02:42:24;2.42;;;0.73;;
73940;SDS011;62294;48.554;10.202;2023-09-19T02:44:51;1.65;;;0.63;;
73940;SDS011;62294;48.554;10.202;2023-09-19T02:47:17;1.85;;;0.60;;
73940;SDS011;62294;48.554;10.202;2023-09-19T02:49:45;1.75;;;0.70;;
73940;SDS011;62294;48.554;10.202;2023-09-19T02:52:12;0.70;;;0.60;;
73940;SDS011;62294;48.554;10.202;2023-09-19T02:54:41;0.95;;;0.70;;
73940;SDS011;62294;48.554;10.202;2023-09-19T02:57:11;1.23;;;0.70;;
73940;SDS011;62294;48.554;10.202;2023-09-19T02:59:37;2.10;;;0.60;;
73940;SDS011;62294;48.554;10.202;2023-09-19T03:02:04;1.33;;;0.70;;
73940;SDS011;62294;48.554;10.202;2023-09-19T03:04:31;1.23;;;0.70;;
73940;SDS011;62294;48.554;10.202;2023-09-19T03:06:59;0.80;;;0.80;;
73940;SDS011;62294;48.554;10.202;2023-09-19T03:09:27;2.67;;;0.82;;
73940;SDS011;62294;48.554;10.202;2023-09-19T03:11:54;3.28;;;0.80;;
73940;SDS011;62294;48.554;10.202;2023-09-19T03:14:20;2.03;;;0.95;;
73940;SDS011;62294;48.554;10.202;2023-09-19T03:16:47;2.90;;;0.90;;
73940;SDS011;62294;48.554;10.202;2023-09-19T03:19:14;2.00;;;1.00;;
73940;SDS011;62294;48.554;10.202;2023-09-19T03:21:41;1.58;;;0.80;;
73940;SDS011;62294;48.554;10.202;2023-09-19T03:24:08;2.33;;;1.00;;
73940;SDS011;62294;48.554;10.202;2023-09-19T03:26:35;4.28;;;1.30;;
73940;SDS011;62294;48.554;10.202;2023-09-19T03:29:04;2.25;;;1.08;;
73940;SDS011;62294;48.554;10.202;2023-09-19T03:31:33;3.72;;;1.00;;
73940;SDS011;62294;48.554;10.202;2023-09-19T03:34:03;3.97;;;1.00;;
73940;SDS011;62294;48.554;10.202;2023-09-19T03:36:30;5.70;;;1.20;;
73940;SDS011;62294;48.554;10.202;2023-09-19T03:38:57;3.97;;;1.35;;
73940;SDS011;62294;48.554;10.202;2023-09-19T03:41:23;2.08;;;1.23;;
73940;SDS011;62294;48.554;10.202;2023-09-19T03:43:50;3.35;;;1.40;;
73940;SDS011;62294;48.554;10.202;2023-09-19T03:46:17;2.38;;;1.30;;
73940;SDS011;62294;48.554;10.202;2023-09-19T03:48:43;2.20;;;1.30;;
73940;SDS011;62294;48.554;10.202;2023-09-19T03:51:10;2.67;;;1.48;;
73940;SDS011;62294;48.554;10.202;2023-09-19T03:53:37;3.72;;;1.35;;
73940;SDS011;62294;48.554;10.202;2023-09-19T03:56:04;3.63;;;1.35;;
73940;SDS011;62294;48.554;10.202;2023-09-19T03:58:31;2.92;;;1.30;;
73940;SDS011;62294;48.554;10.202;2023-09-19T04:00:57;3.17;;;1.83;;
73940;SDS011;62294;48.554;10.202;2023-09-19T04:03:24;2.33;;;1.13;;
73940;SDS011;62294;48.554;10.202;2023-09-19T04:06:01;2.33;;;1.20;;
73940;SDS011;62294;48.554;10.202;2023-09-19T04:08:28;2.35;;;1.25;;
73940;SDS011;62294;48.554;10.202;2023-09-19T04:10:55;3.42;;;1.73;;
73940;SDS011;62294;48.554;10.202;2023-09-19T04:13:23;2.45;;;1.50;;
73940;SDS011;62294;48.554;10.202;2023-09-19T04:15:49;3.45;;;1.40;;
73940;SDS011;62294;48.554;10.202;2023-09-19T04:18:16;4.25;;;1.98;;
73940;SDS011;62294;48.554;10.202;2023-09-19T04:20:47;3.20;;;1.38;;
73940;SDS011;62294;48.554;10.202;2023-09-19T04:23:15;1.98;;;1.55;;
73940;SDS011;62294;48.554;10.202;2023-09-19T04:25:43;2.95;;;1.23;;
73940;SDS011;62294;48.554;10.202;2023-09-19T04:28:10;3.05;;;1.50;;
73940;SDS011;62294;48.554;10.202;2023-09-19T04:30:39;3.53;;;1.45;;
73940;SDS011;62294;48.554;10.202;2023-09-19T04:33:09;8.27;;;1.67;;
73940;SDS011;62294;48.554;10.202;2023-09-19T04:35:35;5.50;;;2.17;;
73940;SDS011;62294;48.554;10.202;2023-09-19T04:38:02;2.60;;;1.55;;
73940;SDS011;62294;48.554;10.202;2023-09-19T04:40:29;3.33;;;1.52;;
73940;SDS011;62294;48.554;10.202;2023-09-19T04:42:56;2.60;;;1.63;;
73940;SDS011;62294;48.554;10.202;2023-09-19T04:45:23;4.10;;;1.60;;
73940;SDS011;62294;48.554;10.202;2023-09-19T04:47:50;3.33;;;1.60;;
73940;SDS011;62294;48.554;10.202;2023-09-19T04:50:17;4.20;;;1.88;;
73940;SDS011;62294;48.554;10.202;2023-09-19T04:52:44;2.45;;;1.50;;
73940;SDS011;62294;48.554;10.202;2023-09-19T04:55:12;4.68;;;1.88;;
73940;SDS011;62294;48.554;10.202;2023-09-19T05:00:16;3.28;;;1.70;;
73940;SDS011;62294;48.554;10.202;2023-09-19T05:02:46;3.22;;;1.80;;
73940;SDS011;62294;48.554;10.202;2023-09-19T05:05:16;5.47;;;1.90;;
73940;SDS011;62294;48.554;10.202;2023-09-19T05:07:43;4.93;;;1.80;;
73940;SDS011;62294;48.554;10.202;2023-09-19T05:10:13;3.75;;;1.95;;
73940;SDS011;62294;48.554;10.202;2023-09-19T05:12:40;3.38;;;1.90;;
73940;SDS011;62294;48.554;10.202;2023-09-19T05:15:07;3.15;;;1.27;;
73940;SDS011;62294;48.554;10.202;2023-09-19T05:17:34;2.72;;;1.60;;
73940;SDS011;62294;48.554;10.202;2023-09-19T05:20:02;3.75;;;1.33;;
73940;SDS011;62294;48.554;10.202;2023-09-19T05:22:42;2.05;;;1.40;;
73940;SDS011;62294;48.554;10.202;2023-09-19T05:25:10;3.60;;;1.50;;
73940;SDS011;62294;48.554;10.202;2023-09-19T05:27:37;4.70;;;1.63;;
73940;SDS011;62294;48.554;10.202;2023-09-19T05:30:03;2.13;;;1.50;;
73940;SDS011;62294;48.554;10.202;2023-09-19T05:32:31;3.00;;;1.50;;
73940;SDS011;62294;48.554;10.202;2023-09-19T05:34:57;2.55;;;1.50;;
73940;SDS011;62294;48.554;10.202;2023-09-19T05:37:24;4.15;;;1.40;;
73940;SDS011;62294;48.554;10.202;2023-09-19T05:39:52;1.98;;;1.20;;
73940;SDS011;62294;48.554;10.202;2023-09-19T05:42:21;2.03;;;1.65;;
73940;SDS011;62294;48.554;10.202;2023-09-19T05:44:48;5.68;;;2.03;;
73940;SDS011;62294;48.554;10.202;2023-09-19T05:47:15;1.70;;;1.40;;
73940;SDS011;62294;48.554;10.202;2023-09-19T05:49:41;2.95;;;1.63;;
73940;SDS011;62294;48.554;10.202;2023-09-19T05:52:08;3.28;;;1.52;;
73940;SDS011;62294;48.554;10.202;2023-09-19T05:54:34;1.90;;;1.25;;
73940;SDS011;62294;48.554;10.202;2023-09-19T05:57:01;3.85;;;1.40;;
73940;SDS011;62294;48.554;10.202;2023-09-19T05:59:27;2.78;;;1.30;;
73940;SDS011;62294;48.554;10.202;2023-09-19T06:01:54;2.05;;;1.50;;
73940;SDS011;62294;48.554;10.202;2023-09-19T06:04:21;3.08;;;1.48;;
73940;SDS011;62294;48.554;10.202;2023-09-19T06:06:47;3.05;;;1.45;;
73940;SDS011;62294;48.554;10.202;2023-09-19T06:09:15;2.78;;;1.50;;
73940;SDS011;62294;48.554;10.202;2023-09-19T06:11:42;3.97;;;1.60;;
73940;SDS011;62294;48.554;10.202;2023-09-19T06:14:09;2.90;;;1.70;;
73940;SDS011;62294;48.554;10.202;2023-09-19T06:16:36;2.10;;;1.48;;
73940;SDS011;62294;48.554;10.202;2023-09-19T06:19:04;4.07;;;1.58;;
73940;SDS011;62294;48.554;10.202;2023-09-19T06:21:34;4.47;;;1.67;;
73940;SDS011;62294;48.554;10.202;2023-09-19T06:24:02;2.10;;;1.30;;
73940;SDS011;62294;48.554;10.202;2023-09-19T06:26:29;4.40;;;1.65;;
73940;SDS011;62294;48.554;10.202;2023-09-19T06:28:56;2.42;;;1.55;;
73940;SDS011;62294;48.554;10.202;2023-09-19T06:31:23;4.97;;;1.55;;
73940;SDS011;62294;48.554;10.202;2023-09-19T06:33:52;3.42;;;1.58;;
73940;SDS011;62294;48.554;10.202;2023-09-19T06:36:19;3.47;;;1.52;;
73940;SDS011;62294;48.554;10.202;2023-09-19T06:38:46;2.47;;;1.23;;
73940;SDS011;62294;48.554;10.202;2023-09-19T06:41:13;2.85;;;1.63;;
73940;SDS011;62294;48.554;10.202;2023-09-19T06:43:42;2.15;;;1.30;;
73940;SDS011;62294;48.554;10.202;2023-09-19T06:46:09;1.73;;;1.20;;
73940;SDS011;62294;48.554;10.202;2023-09-19T06:48:36;1.75;;;1.27;;
73940;SDS011;62294;48.554;10.202;2023-09-19T06:51:02;4.80;;;1.45;;
73940;SDS011;62294;48.554;10.202;2023-09-19T06:53:32;1.67;;;1.20;;
73940;SDS011;62294;48.554;10.202;2023-09-19T06:56:00;3.03;;;1.10;;
73940;SDS011;62294;48.554;10.202;2023-09-19T06:58:27;1.85;;;1.17;;
73940;SDS011;62294;48.554;10.202;2023-09-19T07:00:53;4.07;;;1.48;;
73940;SDS011;62294;48.554;10.202;2023-09-19T07:03:20;2.53;;;1.20;;
73940;SDS011;62294;48.554;10.202;2023-09-19T07:05:48;5.93;;;2.42;;
73940;SDS011;62294;48.554;10.202;2023-09-19T07:08:15;2.55;;;1.30;;
73940;SDS011;62294;48.554;10.202;2023-09-19T07:10:42;2.33;;;1.20;;
73940;SDS011;62294;48.554;10.202;2023-09-19T07:13:15;6.90;;;1.33;;
73940;SDS011;62294;48.554;10.202;2023-09-19T07:15:44;1.77;;;1.10;;
73940;SDS011;62294;48.554;10.202;2023-09-19T07:18:13;3.53;;;0.95;;
73940;SDS011;62294;48.554;10.202;2023-09-19T07:20:45;1.60;;;1.10;;
73940;SDS011;62294;48.554;10.202;2023-09-19T07:23:17;3.17;;;0.93;;
73940;SDS011;62294;48.554;10.202;2023-09-19T07:25:45;1.23;;;1.13;;
73940;SDS011;62294;48.554;10.202;2023-09-19T07:28:12;2.80;;;1.67;;
73940;SDS011;62294;48.554;10.202;2023-09-19T07:30:39;2.45;;;0.90;;
73940;SDS011;62294;48.554;10.202;2023-09-19T07:33:07;2.83;;;1.30;;
73940;SDS011;62294;48.554;10.202;2023-09-19T07:35:37;5.00;;;0.98;;
73940;SDS011;62294;48.554;10.202;2023-09-19T07:38:08;1.38;;;0.82;;
73940;SDS011;62294;48.554;10.202;2023-09-19T07:40:36;1.27;;;1.00;;
73940;SDS011;62294;48.554;10.202;2023-09-19T07:43:03;4.32;;;1.60;;
73940;SDS011;62294;48.554;10.202;2023-09-19T07:45:31;2.75;;;1.20;;
73940;SDS011;62294;48.554;10.202;2023-09-19T07:47:58;1.35;;;0.95;;
73940;SDS011;62294;48.554;10.202;2023-09-19T07:50:33;2.13;;;1.30;;
73940;SDS011;62294;48.554;10.202;2023-09-19T07:53:02;1.73;;;1.02;;
73940;SDS011;62294;48.554;10.202;2023-09-19T07:55:31;3.13;;;1.20;;
73940;SDS011;62294;48.554;10.202;2023-09-19T07:58:01;1.70;;;1.13;;
73940;SDS011;62294;48.554;10.202;2023-09-19T08:00:29;1.85;;;1.00;;
73940;SDS011;62294;48.554;10.202;2023-09-19T08:02:58;2.45;;;1.02;;
73940;SDS011;62294;48.554;10.202;2023-09-19T08:05:33;2.33;;;1.00;;
73940;SDS011;62294;48.554;10.202;2023-09-19T08:08:00;1.02;;;0.93;;
73940;SDS011;62294;48.554;10.202;2023-09-19T08:10:27;1.35;;;0.65;;
73940;SDS011;62294;48.554;10.202;2023-09-19T08:13:01;0.90;;;0.68;;
73940;SDS011;62294;48.554;10.202;2023-09-19T08:15:28;2.67;;;0.80;;
73940;SDS011;62294;48.554;10.202;2023-09-19T08:17:55;0.98;;;0.70;;
73940;SDS011;62294;48.554;10.202;2023-09-19T08:20:21;0.93;;;0.68;;
73940;SDS011;62294;48.554;10.202;2023-09-19T08:22:51;0.55;;;0.55;;
73940;SDS011;62294;48.554;10.202;2023-09-19T08:25:21;0.50;;;0.50;;
73940;SDS011;62294;48.554;10.202;2023-09-19T08:27:48;1.17;;;0.50;;
73940;SDS011;62294;48.554;10.202;2023-09-19T08:30:16;2.30;;;0.50;;
73940;SDS011;62294;48.554;10.202;2023-09-19T08:32:44;0.85;;;0.60;;
73940;SDS011;62294;48.554;10.202;2023-09-19T08:35:12;1.13;;;0.68;;
73940;SDS011;62294;48.554;10.202;2023-09-19T08:37:41;0.52;;;0.52;;
73940;SDS011;62294;48.554;10.202;2023-09-19T08:40:08;1.65;;;0.52;;
73940;SDS011;62294;48.554;10.202;2023-09-19T08:42:48;0.60;;;0.60;;
73940;SDS011;62294;48.554;10.202;2023-09-19T08:45:20;3.65;;;0.80;;
73940;SDS011;62294;48.554;10.202;2023-09-19T08:50:39;2.05;;;0.73;;
73940;SDS011;62294;48.554;10.202;2023-09-19T08:53:10;3.33;;;0.82;;
73940;SDS011;62294;48.554;10.202;2023-09-19T08:55:42;1.48;;;0.70;;
73940;SDS011;62294;48.554;10.202;2023-09-19T08:58:10;1.33;;;0.75;;
73940;SDS011;62294;48.554;10.202;2023-09-19T09:00:39;1.40;;;0.90;;
73940;SDS011;62294;48.554;10.202;2023-09-19T09:03:10;2.03;;;0.93;;
73940;SDS011;62294;48.554;10.202;2023-09-19T09:05:39;1.02;;;0.82;;
73940;SDS011;62294;48.554;10.202;2023-09-19T09:08:10;0.75;;;0.75;;
73940;SDS011;62294;48.554;10.202;2023-09-19T09:10:37;2.60;;;0.65;;
73940;SDS011;62294;48.554;10.202;2023-09-19T09:13:04;1.88;;;1.00;;
73940;SDS011;62294;48.554;10.202;2023-09-19T09:15:35;0.93;;;0.70;;
73940;SDS011;62294;48.554;10.202;2023-09-19T09:18:02;1.73;;;0.88;;
73940;SDS011;62294;48.554;10.202;2023-09-19T09:20:31;7.38;;;1.35;;
73940;SDS011;62294;48.554;10.202;2023-09-19T09:22:58;6.70;;;1.05;;
73940;SDS011;62294;48.554;10.202;2023-09-19T09:25:46;0.90;;;0.77;;
73940;SDS011;62294;48.554;10.202;2023-09-19T09:28:28;2.35;;;1.20;;
73940;SDS011;62294;48.554;10.202;2023-09-19T09:30:57;2.50;;;0.90;;
73940;SDS011;62294;48.554;10.202;2023-09-19T09:33:25;1.50;;;0.80;;
73940;SDS011;62294;48.554;10.202;2023-09-19T09:35:52;1.27;;;0.68;;
73940;SDS011;62294;48.554;10.202;2023-09-19T09:38:19;0.90;;;0.80;;
73940;SDS011;62294;48.554;10.202;2023-09-19T09:40:47;1.75;;;0.80;;
73940;SDS011;62294;48.554;10.202;2023-09-19T09:43:30;1.42;;;1.00;;
73940;SDS011;62294;48.554;10.202;2023-09-19T09:46:06;5.63;;;1.45;;
73940;SDS011;62294;48.554;10.202;2023-09-19T09:48:58;1.55;;;1.10;;
73940;SDS011;62294;48.554;10.202;2023-09-19T09:52:01;1.35;;;0.82;;
73940;SDS011;62294;48.554;10.202;2023-09-19T09:54:35;2.45;;;0.93;;
73940;SDS011;62294;48.554;10.202;2023-09-19T09:57:06;1.27;;;0.77;;
73940;SDS011;62294;48.554;10.202;2023-09-19T09:59:48;0.85;;;0.80;;
73940;SDS011;62294;48.554;10.202;2023-09-19T10:02:20;2.17;;;0.93;;
73940;SDS011;62294;48.554;10.202;2023-09-19T10:04:52;1.83;;;0.80;;
73940;SDS011;62294;48.554;10.202;2023-09-19T10:07:45;0.80;;;0.80;;
73940;SDS011;62294;48.554;10.202;2023-09-19T10:13:05;2.28;;;1.02;;
73940;SDS011;62294;48.554;10.202;2023-09-19T10:15:34;1.73;;;1.10;;
73940;SDS011;62294;48.554;10.202;2023-09-19T10:18:05;2.30;;;1.15;;
73940;SDS011;62294;48.554;10.202;2023-09-19T10:20:35;1.70;;;0.80;;
73940;SDS011;62294;48.554;10.202;2023-09-19T10:23:06;1.40;;;0.90;;
73940;SDS011;62294;48.554;10.202;2023-09-19T10:25:41;1.52;;;0.90;;
73940;SDS011;62294;48.554;10.202;2023-09-19T10:28:09;2.00;;;1.10;;
73940;SDS011;62294;48.554;10.202;2023-09-19T10:30:46;1.85;;;0.90;;
73940;SDS011;62294;48.554;10.202;2023-09-19T10:33:14;6.85;;;1.20;;
73940;SDS011;62294;48.554;10.202;2023-09-19T10:35:45;0.80;;;0.80;;
73940;SDS011;62294;48.554;10.202;2023-09-19T10:38:22;2.53;;;0.93;;
73940;SDS011;62294;48.554;10.202;2023-09-19T10:40:51;2.30;;;1.25;;
73940;SDS011;62294;48.554;10.202;2023-09-19T10:43:19;1.98;;;0.90;;
73940;SDS011;62294;48.554;10.202;2023-09-19T10:45:48;1.48;;;0.93;;
73940;SDS011;62294;48.554;10.202;2023-09-19T10:48:16;2.03;;;1.02;;
73940;SDS011;62294;48.554;10.202;2023-09-19T10:50:50;1.35;;;0.88;;
73940;SDS011;62294;48.554;10.202;2023-09-19T10:53:26;1.20;;;0.95;;
73940;SDS011;62294;48.554;10.202;2023-09-19T10:55:56;1.67;;;0.80;;
73940;SDS011;62294;48.554;10.202;2023-09-19T10:58:29;3.03;;;1.10;;
73940;SDS011;62294;48.554;10.202;2023-09-19T11:01:04;1.60;;;0.90;;
73940;SDS011;62294;48.554;10.202;2023-09-19T11:03:38;2.70;;;1.20;;
73940;SDS011;62294;48.554;10.202;2023-09-19T11:06:18;1.95;;;1.23;;
73940;SDS011;62294;48.554;10.202;2023-09-19T11:30:35;3.92;;;1.15;;
73940;SDS011;62294;48.554;10.202;2023-09-19T11:33:23;2.85;;;1.10;;
73940;SDS011;62294;48.554;10.202;2023-09-19T11:36:06;4.28;;;1.33;;
73940;SDS011;62294;48.554;10.202;2023-09-19T11:46:25;2.25;;;1.17;;
73940;SDS011;62294;48.554;10.202;2023-09-19T11:48:53;2.67;;;0.95;;
73940;SDS011;62294;48.554;10.202;2023-09-19T11:51:21;1.45;;;0.88;;
73940;SDS011;62294;48.554;10.202;2023-09-19T11:53:55;1.48;;;0.95;;
73940;SDS011;62294;48.554;10.202;2023-09-19T11:56:24;1.58;;;0.93;;
73940;SDS011;62294;48.554;10.202;2023-09-19T11:58:54;1.08;;;0.80;;
73940;SDS011;62294;48.554;10.202;2023-09-19T12:01:24;2.15;;;0.85;;
73940;SDS011;62294;48.554;10.202;2023-09-19T12:03:56;2.08;;;1.00;;
73940;SDS011;62294;48.554;10.202;2023-09-19T12:06:26;2.20;;;1.02;;
73940;SDS011;62294;48.554;10.202;2023-09-19T12:08:53;1.27;;;0.90;;
73940;SDS011;62294;48.554;10.202;2023-09-19T12:11:21;1.92;;;0.93;;
73940;SDS011;62294;48.554;10.202;2023-09-19T12:13:49;1.63;;;0.90;;
73940;SDS011;62294;48.554;10.202;2023-09-19T12:16:17;3.35;;;1.08;;
73940;SDS011;62294;48.554;10.202;2023-09-19T12:18:49;1.25;;;0.80;;
73940;SDS011;62294;48.554;10.202;2023-09-19T12:21:27;1.95;;;0.88;;
73940;SDS011;62294;48.554;10.202;2023-09-19T12:24:12;1.27;;;0.90;;
73940;SDS011;62294;48.554;10.202;2023-09-19T12:26:45;1.17;;;0.90;;
73940;SDS011;62294;48.554;10.202;2023-09-19T12:29:19;1.90;;;1.10;;
73940;SDS011;62294;48.554;10.202;2023-09-19T12:31:48;3.33;;;1.10;;
73940;SDS011;62294;48.554;10.202;2023-09-19T12:34:19;3.42;;;0.90;;
73940;SDS011;62294;48.554;10.202;2023-09-19T12:36:47;2.78;;;1.25;;
73940;SDS011;62294;48.554;10.202;2023-09-19T12:39:22;2.30;;;0.88;;
73940;SDS011;62294;48.554;10.202;2023-09-19T12:41:51;1.35;;;0.88;;
73940;SDS011;62294;48.554;10.202;2023-09-19T12:44:19;3.00;;;0.80;;
73940;SDS011;62294;48.554;10.202;2023-09-19T12:46:46;1.60;;;1.10;;
73940;SDS011;62294;48.554;10.202;2023-09-19T12:49:16;1.70;;;1.10;;
73940;SDS011;62294;48.554;10.202;2023-09-19T12:51:45;1.30;;;1.00;;
73940;SDS011;62294;48.554;10.202;2023-09-19T12:54:16;2.20;;;0.90;;
73940;SDS011;62294;48.554;10.202;2023-09-19T12:56:43;1.50;;;1.00;;
73940;SDS011;62294;48.554;10.202;2023-09-19T12:59:16;2.45;;;1.10;;
73940;SDS011;62294;48.554;10.202;2023-09-19T13:01:43;1.05;;;0.88;;
73940;SDS011;62294;48.554;10.202;2023-09-19T13:06:47;1.40;;;0.90;;
73940;SDS011;62294;48.554;10.202;2023-09-19T13:09:16;2.55;;;1.13;;
73940;SDS011;62294;48.554;10.202;2023-09-19T13:11:43;1.77;;;1.15;;
73940;SDS011;62294;48.554;10.202;2023-09-19T13:14:17;2.15;;;1.10;;
73940;SDS011;62294;48.554;10.202;2023-09-19T13:16:54;3.67;;;1.10;;
73940;SDS011;62294;48.554;10.202;2023-09-19T13:19:37;2.42;;;1.00;;
73940;SDS011;62294;48.554;10.202;2023-09-19T13:22:51;3.40;;;1.30;;
73940;SDS011;62294;48.554;10.202;2023-09-19T13:25:10;2.35;;;0.93;;
73940;SDS011;62294;48.554;10.202;2023-09-19T13:27:48;4.05;;;1.00;;
73940;SDS011;62294;48.554;10.202;2023-09-19T13:30:24;1.33;;;0.90;;
73940;SDS011;62294;48.554;10.202;2023-09-19T13:35:40;1.13;;;1.00;;
73940;SDS011;62294;48.554;10.202;2023-09-19T13:38:07;1.48;;;1.17;;
73940;SDS011;62294;48.554;10.202;2023-09-19T13:40:38;1.75;;;1.00;;
73940;SDS011;62294;48.554;10.202;2023-09-19T13:43:08;1.75;;;1.08;;
73940;SDS011;62294;48.554;10.202;2023-09-19T13:45:34;1.75;;;1.00;;
73940;SDS011;62294;48.554;10.202;2023-09-19T13:48:01;1.45;;;1.35;;
73940;SDS011;62294;48.554;10.202;2023-09-19T13:50:28;1.55;;;0.90;;
73940;SDS011;62294;48.554;10.202;2023-09-19T13:52:55;1.02;;;0.73;;
73940;SDS011;62294;48.554;10.202;2023-09-19T13:55:22;2.88;;;1.17;;
73940;SDS011;62294;48.554;10.202;2023-09-19T13:57:48;1.17;;;0.90;;
73940;SDS011;62294;48.554;10.202;2023-09-19T14:00:16;1.60;;;1.00;;
73940;SDS011;62294;48.554;10.202;2023-09-19T14:02:44;3.45;;;0.90;;
73940;SDS011;62294;48.554;10.202;2023-09-19T14:05:12;2.65;;;0.90;;
73940;SDS011;62294;48.554;10.202;2023-09-19T14:07:41;1.33;;;0.93;;
73940;SDS011;62294;48.554;10.202;2023-09-19T14:10:08;4.30;;;1.45;;
73940;SDS011;62294;48.554;10.202;2023-09-19T14:12:37;1.58;;;0.90;;
73940;SDS011;62294;48.554;10.202;2023-09-19T14:15:07;1.48;;;0.95;;
73940;SDS011;62294;48.554;10.202;2023-09-19T14:17:34;1.33;;;1.08;;
73940;SDS011;62294;48.554;10.202;2023-09-19T14:20:01;2.05;;;1.23;;
73940;SDS011;62294;48.554;10.202;2023-09-19T14:22:27;1.52;;;1.00;;
73940;SDS011;62294;48.554;10.202;2023-09-19T14:24:54;2.17;;;0.98;;
73940;SDS011;62294;48.554;10.202;2023-09-19T14:27:21;1.10;;;0.93;;
73940;SDS011;62294;48.554;10.202;2023-09-19T14:29:47;3.60;;;1.10;;
73940;SDS011;62294;48.554;10.202;2023-09-19T14:32:14;5.25;;;2.42;;
73940;SDS011;62294;48.554;10.202;2023-09-19T14:34:40;2.20;;;1.27;;
73940;SDS011;62294;48.554;10.202;2023-09-19T14:37:09;1.27;;;1.08;;
73940;SDS011;62294;48.554;10.202;2023-09-19T14:39:37;1.48;;;1.10;;
73940;SDS011;62294;48.554;10.202;2023-09-19T14:42:06;2.63;;;1.10;;
73940;SDS011;62294;48.554;10.202;2023-09-19T14:44:35;1.50;;;1.08;;
73940;SDS011;62294;48.554;10.202;2023-09-19T14:47:01;1.33;;;1.00;;
73940;SDS011;62294;48.554;10.202;2023-09-19T14:49:28;3.33;;;1.00;;
73940;SDS011;62294;48.554;10.202;2023-09-19T14:51:54;2.80;;;1.10;;
73940;SDS011;62294;48.554;10.202;2023-09-19T14:54:22;1.80;;;1.10;;
73940;SDS011;62294;48.554;10.202;2023-09-19T14:56:50;1.40;;;0.85;;
73940;SDS011;62294;48.554;10.202;2023-09-19T14:59:22;3.78;;;1.00;;
73940;SDS011;62294;48.554;10.202;2023-09-19T15:01:48;2.30;;;1.20;;
73940;SDS011;62294;48.554;10.202;2023-09-19T15:04:16;1.73;;;1.15;;
73940;SDS011;62294;48.554;10.202;2023-09-19T15:06:44;1.70;;;1.00;;
73940;SDS011;62294;48.554;10.202;2023-09-19T15:09:11;2.92;;;1.27;;
73940;SDS011;62294;48.554;10.202;2023-09-19T15:11:37;3.22;;;1.17;;
73940;SDS011;62294;48.554;10.202;2023-09-19T15:14:04;2.45;;;1.15;;
73940;SDS011;62294;48.554;10.202;2023-09-19T15:16:30;1.20;;;0.90;;
73940;SDS011;62294;48.554;10.202;2023-09-19T15:18:58;2.42;;;1.10;;
73940;SDS011;62294;48.554;10.202;2023-09-19T15:21:25;2.72;;;0.98;;
73940;SDS011;62294;48.554;10.202;2023-09-19T15:23:51;1.10;;;1.00;;
73940;SDS011;62294;48.554;10.202;2023-09-19T15:26:17;2.25;;;1.45;;
73940;SDS011;62294;48.554;10.202;2023-09-19T15:28:48;2.17;;;1.10;;
73940;SDS011;62294;48.554;10.202;2023-09-19T15:31:15;2.05;;;1.17;;
73940;SDS011;62294;48.554;10.202;2023-09-19T15:33:42;1.92;;;0.90;;
73940;SDS011;62294;48.554;10.202;2023-09-19T15:36:09;2.42;;;1.20;;
73940;SDS011;62294;48.554;10.202;2023-09-19T15:41:33;1.60;;;1.10;;
73940;SDS011;62294;48.554;10.202;2023-09-19T15:44:11;2.10;;;1.30;;
73940;SDS011;62294;48.554;10.202;2023-09-19T15:46:40;1.95;;;1.17;;
73940;SDS011;62294;48.554;10.202;2023-09-19T15:49:07;1.75;;;1.10;;
73940;SDS011;62294;48.554;10.202;2023-09-19T15:51:34;2.63;;;1.13;;
73940;SDS011;62294;48.554;10.202;2023-09-19T15:54:06;2.08;;;1.42;;
73940;SDS011;62294;48.554;10.202;2023-09-19T15:56:34;2.53;;;1.45;;